createdAt,value
2023-09-09T00:00:08.589Z,0.60
2023-09-09T00:02:35.352Z,0.40
2023-09-09T00:05:02.075Z,0.63
2023-09-09T00:07:28.805Z,0.43
2023-09-09T00:09:55.504Z,1.00
2023-09-09T00:12:22.478Z,0.63
2023-09-09T00:14:49.268Z,0.60
2023-09-09T00:17:15.996Z,1.00
2023-09-09T00:19:42.751Z,0.70
2023-09-09T00:22:09.379Z,0.63
2023-09-09T00:24:36.177Z,0.50
2023-09-09T00:27:02.911Z,0.55
2023-09-09T00:29:30.807Z,0.65
2023-09-09T00:31:57.511Z,0.60
2023-09-09T00:34:24.249Z,0.73
2023-09-09T00:36:51.095Z,0.80
2023-09-09T00:39:17.778Z,0.85
2023-09-09T00:41:44.458Z,0.60
2023-09-09T00:44:11.131Z,0.57
2023-09-09T00:46:38.090Z,0.90
2023-09-09T00:49:05.021Z,0.80
2023-09-09T00:51:32.691Z,0.60
2023-09-09T00:53:59.553Z,0.60
2023-09-09T00:56:26.444Z,0.70
2023-09-09T00:58:53.243Z,0.52
2023-09-09T01:01:20.030Z,0.93
2023-09-09T01:03:47.315Z,0.80
2023-09-09T01:06:14.097Z,0.82
2023-09-09T01:08:40.760Z,0.65
2023-09-09T01:11:07.374Z,0.77
2023-09-09T01:13:36.376Z,0.63
2023-09-09T01:16:04.011Z,0.70
2023-09-09T01:18:32.630Z,0.60
2023-09-09T01:21:05.579Z,0.80
2023-09-09T01:23:32.590Z,0.70
2023-09-09T01:25:59.408Z,0.63
2023-09-09T01:28:26.157Z,0.90
2023-09-09T01:30:53.966Z,0.73
2023-09-09T01:33:20.648Z,0.63
2023-09-09T01:35:47.709Z,0.60
2023-09-09T01:38:14.670Z,0.73
2023-09-09T01:40:41.380Z,0.80
2023-09-09T01:43:08.550Z,0.73
2023-09-09T01:45:35.266Z,0.70
2023-09-09T01:48:02.063Z,0.73
2023-09-09T01:50:28.990Z,0.70
2023-09-09T01:52:56.491Z,0.82
2023-09-09T01:55:23.114Z,0.70
2023-09-09T01:57:49.747Z,0.70
2023-09-09T02:00:16.620Z,0.95
2023-09-09T02:02:43.366Z,0.98
2023-09-09T02:05:10.847Z,1.05
2023-09-09T02:07:37.693Z,0.63
2023-09-09T02:10:04.756Z,0.65
2023-09-09T02:12:31.424Z,0.70
2023-09-09T02:14:58.125Z,0.82
2023-09-09T02:17:24.878Z,0.98
2023-09-09T02:19:58.137Z,0.73
2023-09-09T02:22:25.060Z,0.90
2023-09-09T02:24:56.760Z,0.68
2023-09-09T02:27:24.238Z,0.55
2023-09-09T02:29:51.133Z,0.80
2023-09-09T02:32:18.671Z,0.60
2023-09-09T02:34:45.688Z,0.85
2023-09-09T02:37:18.228Z,0.73
2023-09-09T02:39:49.772Z,0.80
2023-09-09T02:42:18.375Z,0.77
2023-09-09T02:44:45.629Z,0.80
2023-09-09T02:47:13.727Z,0.60
2023-09-09T02:49:41.639Z,0.60
2023-09-09T02:52:08.898Z,0.60
2023-09-09T02:54:36.150Z,0.60
2023-09-09T02:57:04.926Z,0.70
2023-09-09T02:59:34.237Z,1.02
2023-09-09T03:02:01.864Z,0.75
2023-09-09T03:04:28.729Z,0.73
2023-09-09T03:06:55.489Z,1.20
2023-09-09T03:09:23.157Z,0.98
2023-09-09T03:11:49.860Z,0.73
2023-09-09T03:14:16.536Z,0.40
2023-09-09T03:16:43.347Z,0.85
2023-09-09T03:19:10.248Z,0.77
2023-09-09T03:21:36.878Z,0.82
2023-09-09T03:24:03.691Z,0.73
2023-09-09T03:26:33.307Z,0.80
2023-09-09T03:29:00.862Z,0.90
2023-09-09T03:31:27.847Z,0.60
2023-09-09T03:33:54.723Z,0.80
2023-09-09T03:36:21.491Z,0.88
2023-09-09T03:38:48.149Z,0.95
2023-09-09T03:41:14.796Z,0.75
2023-09-09T03:43:41.925Z,0.80
2023-09-09T03:46:09.463Z,0.70
2023-09-09T03:48:36.267Z,0.60
2023-09-09T03:51:03.573Z,0.70
2023-09-09T03:53:30.729Z,0.75
2023-09-09T03:55:59.504Z,0.70
2023-09-09T03:58:26.225Z,0.63
2023-09-09T04:01:10.444Z,0.65
2023-09-09T04:03:39.203Z,0.75
2023-09-09T04:06:08.112Z,0.65
2023-09-09T04:08:36.738Z,0.80
2023-09-09T04:11:04.536Z,0.63
2023-09-09T04:13:31.743Z,0.70
2023-09-09T04:15:59.342Z,0.52
2023-09-09T04:18:42.263Z,1.00
2023-09-09T04:21:11.405Z,0.82
2023-09-09T04:23:38.517Z,0.55
2023-09-09T04:26:05.409Z,0.90
2023-09-09T04:28:32.005Z,0.93
2023-09-09T04:30:58.681Z,0.55
2023-09-09T04:33:25.388Z,0.55
2023-09-09T04:35:52.065Z,0.70
2023-09-09T04:38:18.759Z,0.60
2023-09-09T04:40:45.403Z,0.70
2023-09-09T04:43:12.060Z,0.85
2023-09-09T04:45:38.850Z,0.70
2023-09-09T04:48:06.340Z,0.60
2023-09-09T04:50:33.276Z,0.52
2023-09-09T04:52:59.928Z,0.70
2023-09-09T04:55:26.585Z,0.70
2023-09-09T04:57:53.244Z,0.73
2023-09-09T05:00:19.943Z,0.90
2023-09-09T05:02:46.604Z,0.95
2023-09-09T05:05:13.429Z,0.80
2023-09-09T05:07:40.191Z,0.70
2023-09-09T05:10:07.361Z,0.85
2023-09-09T05:12:34.831Z,0.75
2023-09-09T05:15:01.549Z,0.82
2023-09-09T05:17:28.568Z,0.90
2023-09-09T05:19:55.549Z,0.68
2023-09-09T05:22:22.279Z,0.75
2023-09-09T05:24:48.952Z,0.60
2023-09-09T05:27:15.736Z,0.73
2023-09-09T05:29:44.172Z,1.10
2023-09-09T05:32:10.971Z,1.20
2023-09-09T05:34:37.865Z,0.75
2023-09-09T05:37:04.797Z,0.93
2023-09-09T05:39:31.436Z,0.75
2023-09-09T05:41:58.111Z,0.80
2023-09-09T05:44:24.793Z,0.65
2023-09-09T05:46:51.590Z,0.60
2023-09-09T05:49:32.001Z,0.75
2023-09-09T05:52:03.450Z,0.82
2023-09-09T05:54:30.059Z,0.90
2023-09-09T05:56:57.545Z,0.57
2023-09-09T05:59:24.250Z,0.63
2023-09-09T06:01:50.930Z,0.98
2023-09-09T06:04:17.833Z,0.90
2023-09-09T06:06:47.977Z,0.52
2023-09-09T06:09:14.704Z,1.02
2023-09-09T06:11:41.421Z,0.63
2023-09-09T06:14:08.279Z,0.70
2023-09-09T06:16:34.976Z,0.82
2023-09-09T06:19:01.807Z,0.75
2023-09-09T06:21:28.551Z,0.90
2023-09-09T06:23:55.928Z,1.00
2023-09-09T06:26:22.584Z,0.73
2023-09-09T06:28:49.263Z,0.63
2023-09-09T06:31:16.128Z,0.80
2023-09-09T06:33:44.935Z,0.80
2023-09-09T06:36:12.340Z,0.60
2023-09-09T06:38:39.200Z,0.80
2023-09-09T06:41:05.983Z,0.73
2023-09-09T06:43:32.683Z,0.73
2023-09-09T06:46:01.182Z,0.77
2023-09-09T06:50:54.672Z,0.73
2023-09-09T06:53:21.365Z,0.85
2023-09-09T06:55:48.799Z,0.63
2023-09-09T06:58:15.690Z,0.70
2023-09-09T07:00:43.574Z,0.80
2023-09-09T07:03:10.386Z,0.95
2023-09-09T07:05:37.195Z,0.95
2023-09-09T07:08:04.250Z,1.00
2023-09-09T07:10:31.682Z,0.60
2023-09-09T07:12:58.587Z,0.75
2023-09-09T07:15:25.349Z,0.90
2023-09-09T07:17:52.090Z,1.00
2023-09-09T07:20:18.755Z,0.68
2023-09-09T07:22:45.399Z,0.70
2023-09-09T07:25:12.123Z,0.93
2023-09-09T07:27:38.867Z,0.90
2023-09-09T07:30:06.935Z,1.00
2023-09-09T07:32:34.229Z,0.80
2023-09-09T07:35:03.417Z,0.82
2023-09-09T07:37:30.448Z,1.23
2023-09-09T07:40:01.440Z,0.80
2023-09-09T07:42:28.765Z,0.80
2023-09-09T07:44:55.472Z,0.88
2023-09-09T07:47:22.502Z,0.75
2023-09-09T07:49:50.122Z,1.00
2023-09-09T07:52:16.808Z,10.10
2023-09-09T07:54:43.547Z,8.38
2023-09-09T07:57:10.161Z,5.13
2023-09-09T07:59:40.040Z,2.88
2023-09-09T08:02:06.920Z,3.08
2023-09-09T08:04:33.832Z,2.45
2023-09-09T08:07:00.961Z,2.30
2023-09-09T08:09:27.714Z,2.33
2023-09-09T08:11:54.460Z,2.47
2023-09-09T08:14:21.231Z,2.45
2023-09-09T08:16:48.032Z,1.88
2023-09-09T08:19:15.033Z,2.20
2023-09-09T08:21:41.757Z,1.90
2023-09-09T08:24:08.638Z,2.50
2023-09-09T08:26:35.448Z,2.28
2023-09-09T08:29:02.214Z,2.45
2023-09-09T08:31:28.990Z,2.00
2023-09-09T08:33:55.752Z,2.45
2023-09-09T08:36:22.501Z,1.98
2023-09-09T08:38:49.291Z,2.08
2023-09-09T08:41:25.008Z,2.25
2023-09-09T08:44:06.211Z,2.20
2023-09-09T08:46:33.097Z,2.17
2023-09-09T08:49:03.267Z,2.15
2023-09-09T08:51:39.045Z,2.22
2023-09-09T08:54:08.446Z,1.98
2023-09-09T08:56:35.499Z,1.95
2023-09-09T08:59:02.367Z,2.00
2023-09-09T09:01:29.531Z,1.98
2023-09-09T09:03:58.431Z,2.10
2023-09-09T09:06:26.568Z,2.15
2023-09-09T09:08:53.283Z,1.63
2023-09-09T09:11:21.879Z,2.03
2023-09-09T09:13:48.677Z,1.65
2023-09-09T09:16:15.600Z,2.20
2023-09-09T09:18:43.433Z,2.13
2023-09-09T09:21:11.568Z,1.63
2023-09-09T09:23:45.743Z,2.15
2023-09-09T09:26:27.341Z,1.85
2023-09-09T09:31:25.281Z,1.70
2023-09-09T09:33:53.115Z,2.00
2023-09-09T09:36:23.622Z,1.88
2023-09-09T09:38:54.304Z,1.85
2023-09-09T09:41:22.392Z,2.03
2023-09-09T09:43:50.528Z,1.70
2023-09-09T09:46:20.417Z,2.33
2023-09-09T09:48:47.593Z,2.33
2023-09-09T09:51:14.775Z,2.05
2023-09-09T09:53:50.262Z,2.25
2023-09-09T09:56:17.444Z,1.70
2023-09-09T09:58:45.472Z,2.05
2023-09-09T10:01:12.511Z,2.03
2023-09-09T10:03:47.576Z,1.85
2023-09-09T10:06:18.725Z,1.98
2023-09-09T10:09:09.626Z,1.80
2023-09-09T10:12:07.388Z,1.58
2023-09-09T10:14:36.894Z,1.85
2023-09-09T10:17:10.054Z,2.10
2023-09-09T10:19:40.095Z,1.83
2023-09-09T10:22:07.531Z,1.77
2023-09-09T10:24:39.633Z,2.03
2023-09-09T10:27:08.147Z,1.80
2023-09-09T10:29:38.242Z,2.08
2023-09-09T10:32:06.227Z,2.50
2023-09-09T10:34:39.273Z,2.08
2023-09-09T10:37:08.918Z,2.22
2023-09-09T10:39:36.664Z,1.88
2023-09-09T10:42:05.746Z,1.98
2023-09-09T10:44:32.501Z,1.58
2023-09-09T10:46:59.385Z,2.03
2023-09-09T10:49:28.203Z,1.67
2023-09-09T10:54:27.394Z,1.83
2023-09-09T10:57:01.153Z,1.70
2023-09-09T10:59:32.792Z,1.75
2023-09-09T11:02:14.753Z,1.80
2023-09-09T11:04:42.748Z,1.90
2023-09-09T11:07:14.726Z,2.03
2023-09-09T11:09:51.671Z,1.80
2023-09-09T11:12:18.684Z,2.00
2023-09-09T11:14:47.478Z,2.47
2023-09-09T11:17:14.864Z,1.88
2023-09-09T11:19:43.596Z,2.00
2023-09-09T11:22:11.728Z,2.05
2023-09-09T11:24:39.165Z,2.05
2023-09-09T11:27:07.129Z,1.70
2023-09-09T11:29:37.410Z,2.00
2023-09-09T11:32:09.344Z,1.98
2023-09-09T11:34:36.107Z,1.92
2023-09-09T11:37:04.303Z,1.65
2023-09-09T11:39:31.126Z,1.80
2023-09-09T11:41:57.841Z,1.42
2023-09-09T11:44:24.588Z,1.73
2023-09-09T11:46:51.649Z,1.42
2023-09-09T11:49:19.161Z,1.85
2023-09-09T11:51:46.600Z,1.75
2023-09-09T11:54:19.954Z,1.75
2023-09-09T11:56:46.821Z,1.63
2023-09-09T11:59:13.473Z,2.03
2023-09-09T12:01:48.173Z,1.73
2023-09-09T12:04:16.105Z,1.70
2023-09-09T12:06:48.178Z,2.30
2023-09-09T12:09:15.731Z,2.03
2023-09-09T12:11:43.764Z,1.45
2023-09-09T12:14:13.102Z,1.98
2023-09-09T12:16:41.644Z,1.73
2023-09-09T12:19:13.733Z,1.85
2023-09-09T12:21:47.524Z,1.52
2023-09-09T12:24:14.562Z,1.27
2023-09-09T12:26:54.345Z,2.03
2023-09-09T12:29:21.431Z,2.13
2023-09-09T12:31:55.004Z,1.45
2023-09-09T12:34:23.485Z,1.70
2023-09-09T12:36:52.009Z,1.95
2023-09-09T12:39:31.911Z,1.90
2023-09-09T12:42:05.969Z,1.85
2023-09-09T12:44:34.246Z,1.63
2023-09-09T12:47:05.236Z,1.90
2023-09-09T12:49:33.727Z,1.60
2023-09-09T12:52:00.474Z,1.65
2023-09-09T12:54:27.293Z,1.67
2023-09-09T12:56:54.068Z,1.98
2023-09-09T12:59:20.815Z,1.67
2023-09-09T13:01:49.698Z,1.92
2023-09-09T13:04:16.439Z,1.83
2023-09-09T13:06:43.242Z,1.50
2023-09-09T13:09:10.124Z,1.58
2023-09-09T13:11:36.873Z,1.55
2023-09-09T13:14:13.194Z,1.65
2023-09-09T13:16:47.064Z,1.70
2023-09-09T13:19:13.835Z,1.67
2023-09-09T13:21:40.507Z,1.60
2023-09-09T13:24:07.405Z,1.70
2023-09-09T13:26:34.350Z,1.52
2023-09-09T13:29:00.977Z,1.60
2023-09-09T13:31:27.677Z,1.48
2023-09-09T13:33:54.381Z,1.63
2023-09-09T13:36:21.119Z,1.50
2023-09-09T13:38:47.853Z,1.60
2023-09-09T13:41:14.713Z,1.50
2023-09-09T13:43:41.550Z,1.80
2023-09-09T13:46:08.558Z,1.88
2023-09-09T13:48:35.223Z,1.40
2023-09-09T13:51:01.901Z,1.52
2023-09-09T13:53:28.520Z,1.70
2023-09-09T13:55:57.244Z,1.80
2023-09-09T13:58:23.894Z,1.80
2023-09-09T14:00:52.105Z,1.95
2023-09-09T14:03:18.938Z,1.40
2023-09-09T14:05:45.650Z,1.55
2023-09-09T14:08:12.314Z,1.42
2023-09-09T14:10:39.139Z,1.67
2023-09-09T14:13:05.821Z,1.35
2023-09-09T14:15:32.840Z,1.42
2023-09-09T14:17:59.550Z,1.83
2023-09-09T14:20:27.100Z,1.85
2023-09-09T14:22:53.751Z,1.48
2023-09-09T14:25:20.470Z,1.73
2023-09-09T14:27:47.169Z,1.60
2023-09-09T14:30:14.004Z,1.38
2023-09-09T14:32:40.772Z,2.00
2023-09-09T14:35:07.920Z,1.83
2023-09-09T14:37:34.737Z,1.50
2023-09-09T14:40:01.404Z,1.73
2023-09-09T14:42:28.154Z,1.52
2023-09-09T14:44:54.832Z,2.03
2023-09-09T14:47:21.452Z,1.65
2023-09-09T14:49:48.105Z,1.58
2023-09-09T14:52:14.938Z,1.30
2023-09-09T14:54:41.674Z,1.33
2023-09-09T14:57:08.528Z,1.77
2023-09-09T14:59:35.549Z,1.67
2023-09-09T15:02:02.421Z,1.58
2023-09-09T15:04:29.865Z,1.30
2023-09-09T15:06:56.562Z,1.25
2023-09-09T15:09:23.396Z,1.58
2023-09-09T15:11:50.118Z,1.80
2023-09-09T15:14:16.879Z,1.55
2023-09-09T15:16:51.558Z,1.23
2023-09-09T15:19:21.097Z,1.40
2023-09-09T15:21:47.788Z,1.33
2023-09-09T15:24:14.541Z,1.40
2023-09-09T15:26:41.510Z,1.42
2023-09-09T15:29:08.222Z,1.50
2023-09-09T15:31:35.799Z,1.60
2023-09-09T15:34:03.694Z,1.35
2023-09-09T15:36:30.429Z,1.63
2023-09-09T15:38:57.350Z,1.40
2023-09-09T15:41:24.383Z,1.63
2023-09-09T15:43:52.046Z,1.50
2023-09-09T15:46:19.326Z,1.88
2023-09-09T15:48:46.112Z,1.27
2023-09-09T15:51:12.839Z,1.65
2023-09-09T15:53:39.565Z,1.35
2023-09-09T15:56:12.516Z,1.40
2023-09-09T15:58:40.252Z,1.20
2023-09-09T16:01:07.570Z,1.30
2023-09-09T16:03:36.643Z,1.30
2023-09-09T16:06:08.926Z,1.20
2023-09-09T16:08:39.766Z,1.52
2023-09-09T16:11:06.900Z,1.88
2023-09-09T16:13:34.356Z,1.50
2023-09-09T16:16:02.091Z,1.70
2023-09-09T16:18:28.809Z,1.42
2023-09-09T16:20:55.479Z,1.58
2023-09-09T16:23:22.105Z,1.50
2023-09-09T16:25:48.801Z,1.52
2023-09-09T16:28:15.883Z,1.52
2023-09-09T16:30:42.731Z,1.10
2023-09-09T16:33:09.441Z,1.27
2023-09-09T16:35:36.776Z,1.40
2023-09-09T16:38:03.856Z,1.23
2023-09-09T16:40:30.610Z,1.40
2023-09-09T16:42:57.323Z,1.42
2023-09-09T16:45:24.065Z,1.30
2023-09-09T16:47:51.754Z,1.38
2023-09-09T16:50:18.557Z,1.40
2023-09-09T16:52:45.396Z,1.73
2023-09-09T16:55:12.118Z,1.27
2023-09-09T16:57:39.600Z,1.25
2023-09-09T17:00:11.468Z,1.50
2023-09-09T17:02:38.458Z,1.58
2023-09-09T17:05:06.177Z,1.50
2023-09-09T17:07:32.932Z,1.42
2023-09-09T17:09:59.604Z,1.48
2023-09-09T17:12:26.232Z,1.20
2023-09-09T17:14:52.877Z,1.90
2023-09-09T17:17:19.589Z,1.45
2023-09-09T17:19:46.379Z,1.73
2023-09-09T17:22:13.171Z,1.60
2023-09-09T17:24:39.869Z,1.33
2023-09-09T17:27:07.369Z,1.40
2023-09-09T17:29:34.021Z,1.45
2023-09-09T17:32:03.044Z,1.58
2023-09-09T17:34:38.756Z,1.10
2023-09-09T17:37:05.569Z,2.05
2023-09-09T17:39:32.252Z,1.30
2023-09-09T17:41:58.929Z,1.55
2023-09-09T17:44:25.608Z,1.42
2023-09-09T17:46:52.403Z,1.25
2023-09-09T17:49:26.416Z,1.20
2023-09-09T17:51:54.257Z,1.58
2023-09-09T17:54:23.290Z,1.20
2023-09-09T17:56:52.983Z,1.33
2023-09-09T17:59:21.189Z,1.77
2023-09-09T18:01:49.249Z,1.42
2023-09-09T18:04:16.316Z,1.90
2023-09-09T18:06:43.264Z,2.30
2023-09-09T18:09:09.918Z,1.77
2023-09-09T18:11:36.699Z,2.30
2023-09-09T18:14:03.399Z,2.28
2023-09-09T18:16:31.953Z,2.03
2023-09-09T18:18:59.112Z,2.13
2023-09-09T18:21:25.801Z,2.72
2023-09-09T18:23:53.463Z,2.42
2023-09-09T18:26:20.426Z,2.58
2023-09-09T18:28:47.948Z,2.97
2023-09-09T18:31:14.993Z,2.72
2023-09-09T18:33:41.813Z,3.08
2023-09-09T18:36:08.768Z,3.33
2023-09-09T18:38:35.502Z,2.67
2023-09-09T18:41:04.035Z,3.53
2023-09-09T18:43:31.250Z,3.05
2023-09-09T18:45:59.519Z,2.83
2023-09-09T18:48:26.623Z,2.85
2023-09-09T18:50:53.352Z,2.88
2023-09-09T18:53:20.838Z,2.30
2023-09-09T18:55:48.027Z,3.13
2023-09-09T18:58:14.829Z,3.15
2023-09-09T19:00:41.711Z,2.70
2023-09-09T19:03:08.912Z,3.10
2023-09-09T19:05:36.225Z,2.83
2023-09-09T19:08:03.792Z,3.08
2023-09-09T19:10:31.341Z,3.22
2023-09-09T19:12:58.106Z,2.97
2023-09-09T19:15:24.966Z,3.22
2023-09-09T19:17:52.074Z,3.17
2023-09-09T19:20:19.075Z,3.03
2023-09-09T19:22:48.051Z,2.63
2023-09-09T19:25:14.872Z,2.90
2023-09-09T19:27:41.843Z,3.17
2023-09-09T19:30:09.491Z,2.63
2023-09-09T19:32:36.519Z,3.40
2023-09-09T19:35:03.715Z,3.03
2023-09-09T19:37:30.414Z,2.85
2023-09-09T19:39:59.066Z,2.67
2023-09-09T19:44:57.773Z,2.85
2023-09-09T19:47:28.329Z,3.05
2023-09-09T19:49:55.269Z,3.03
2023-09-09T19:52:22.256Z,2.95
2023-09-09T19:54:49.148Z,3.03
2023-09-09T19:57:16.101Z,2.33
2023-09-09T19:59:42.914Z,2.90
2023-09-09T20:02:09.789Z,3.28
2023-09-09T20:04:36.600Z,2.67
2023-09-09T20:07:03.660Z,2.80
2023-09-09T20:09:30.378Z,2.72
2023-09-09T20:11:57.166Z,2.63
2023-09-09T20:14:24.018Z,2.33
2023-09-09T20:16:50.730Z,3.13
2023-09-09T20:19:17.434Z,3.00
2023-09-09T20:21:44.158Z,3.13
2023-09-09T20:24:10.845Z,3.25
2023-09-09T20:26:37.516Z,2.90
2023-09-09T20:29:04.295Z,2.53
2023-09-09T20:31:31.049Z,2.83
2023-09-09T20:33:57.777Z,2.72
2023-09-09T20:36:24.727Z,2.70
2023-09-09T20:38:51.557Z,2.97
2023-09-09T20:41:18.244Z,2.80
2023-09-09T20:43:45.197Z,3.15
2023-09-09T20:46:12.949Z,3.25
2023-09-09T20:48:40.227Z,2.70
2023-09-09T20:51:07.128Z,2.78
2023-09-09T20:53:34.793Z,3.35
2023-09-09T20:56:11.466Z,2.63
2023-09-09T20:58:41.054Z,3.17
2023-09-09T21:01:08.634Z,2.72
2023-09-09T21:03:35.554Z,2.85
2023-09-09T21:06:02.246Z,3.08
2023-09-09T21:08:30.073Z,2.88
2023-09-09T21:10:56.882Z,3.00
2023-09-09T21:13:23.656Z,2.70
2023-09-09T21:15:50.866Z,2.92
2023-09-09T21:18:18.390Z,3.30
2023-09-09T21:20:45.559Z,2.53
2023-09-09T21:23:12.658Z,2.95
2023-09-09T21:25:41.224Z,2.72
2023-09-09T21:30:35.101Z,2.75
2023-09-09T21:33:01.950Z,2.97
2023-09-09T21:35:28.735Z,2.78
2023-09-09T21:37:55.449Z,2.38
2023-09-09T21:40:22.152Z,2.22
2023-09-09T21:42:48.872Z,2.65
2023-09-09T21:45:15.622Z,2.72
2023-09-09T21:47:42.330Z,2.83
2023-09-09T21:50:09.462Z,2.72
2023-09-09T21:52:36.249Z,3.03
2023-09-09T21:55:02.975Z,2.95
2023-09-09T21:57:29.603Z,3.15
2023-09-09T21:59:56.956Z,2.42
2023-09-09T22:02:23.665Z,3.05
2023-09-09T22:04:50.577Z,3.13
2023-09-09T22:07:18.806Z,3.00
2023-09-09T22:09:45.519Z,2.67
2023-09-09T22:12:12.461Z,2.97
2023-09-09T22:14:39.146Z,2.47
2023-09-09T22:17:06.092Z,2.65
2023-09-09T22:19:32.853Z,2.92
2023-09-09T22:21:59.495Z,2.90
2023-09-09T22:24:26.178Z,3.10
2023-09-09T22:26:57.048Z,2.70
2023-09-09T22:29:23.754Z,2.60
2023-09-09T22:31:50.494Z,2.80
2023-09-09T22:34:17.211Z,2.58
2023-09-09T22:36:43.902Z,2.65
2023-09-09T22:39:10.758Z,2.53
2023-09-09T22:41:37.396Z,2.70
2023-09-09T22:44:04.307Z,3.03
2023-09-09T22:46:31.113Z,2.92
2023-09-09T22:48:57.847Z,2.55
2023-09-09T22:51:25.939Z,2.65
2023-09-09T22:53:53.421Z,3.25
2023-09-09T22:56:20.247Z,2.75
2023-09-09T22:58:47.305Z,3.42
2023-09-09T23:01:17.712Z,3.05
2023-09-09T23:03:44.871Z,2.47
2023-09-09T23:06:11.713Z,3.15
2023-09-09T23:08:38.560Z,3.05
2023-09-09T23:11:15.154Z,2.55
2023-09-09T23:13:42.623Z,2.53
2023-09-09T23:16:09.442Z,2.80
2023-09-09T23:18:37.449Z,2.78
2023-09-09T23:21:04.618Z,2.85
2023-09-09T23:23:31.316Z,2.67
2023-09-09T23:25:59.821Z,2.58
2023-09-09T23:31:05.081Z,2.50
2023-09-09T23:33:32.558Z,2.47
2023-09-09T23:36:01.441Z,3.00
2023-09-09T23:38:28.104Z,3.10
2023-09-09T23:40:54.798Z,3.00
2023-09-09T23:43:22.257Z,3.00
2023-09-09T23:45:48.911Z,2.25
2023-09-09T23:48:15.733Z,2.53
2023-09-09T23:50:42.461Z,3.10
2023-09-09T23:53:09.125Z,2.72
2023-09-09T23:55:35.818Z,2.45
2023-09-09T23:58:02.464Z,3.20
